sensor_id;sensor_type;location;lat;lon;timestamp;temperature;humidity
13707;DHT22;6925;47.816;13.072;2024-01-30T00:00:06;5.40;51.90
13707;DHT22;6925;47.816;13.072;2024-01-30T00:02:33;5.50;52.10
13707;DHT22;6925;47.816;13.072;2024-01-30T00:05:01;5.40;52.10
13707;DHT22;6925;47.816;13.072;2024-01-30T00:07:29;5.40;52.30
13707;DHT22;6925;47.816;13.072;2024-01-30T00:09:57;5.30;52.50
13707;DHT22;6925;47.816;13.072;2024-01-30T00:12:25;5.30;52.90
13707;DHT22;6925;47.816;13.072;2024-01-30T00:14:52;5.30;52.80
13707;DHT22;6925;47.816;13.072;2024-01-30T00:17:20;5.20;53.00
13707;DHT22;6925;47.816;13.072;2024-01-30T00:19:47;5.30;53.00
13707;DHT22;6925;47.816;13.072;2024-01-30T00:22:14;5.40;52.80
13707;DHT22;6925;47.816;13.072;2024-01-30T00:24:41;5.30;52.40
13707;DHT22;6925;47.816;13.072;2024-01-30T00:27:10;5.30;52.90
13707;DHT22;6925;47.816;13.072;2024-01-30T00:29:37;5.30;52.70
13707;DHT22;6925;47.816;13.072;2024-01-30T00:32:05;5.30;52.80
13707;DHT22;6925;47.816;13.072;2024-01-30T00:34:32;5.30;52.40
13707;DHT22;6925;47.816;13.072;2024-01-30T00:36:59;5.30;53.00
13707;DHT22;6925;47.816;13.072;2024-01-30T00:39:26;5.30;53.40
13707;DHT22;6925;47.816;13.072;2024-01-30T00:41:53;5.30;53.20
13707;DHT22;6925;47.816;13.072;2024-01-30T00:44:22;5.30;53.60
13707;DHT22;6925;47.816;13.072;2024-01-30T00:46:49;5.20;53.50
13707;DHT22;6925;47.816;13.072;2024-01-30T00:49:16;5.20;54.10
13707;DHT22;6925;47.816;13.072;2024-01-30T00:51:43;5.20;54.10
13707;DHT22;6925;47.816;13.072;2024-01-30T00:54:11;5.10;54.20
13707;DHT22;6925;47.816;13.072;2024-01-30T00:56:38;5.00;53.90
13707;DHT22;6925;47.816;13.072;2024-01-30T00:59:05;5.00;53.70
13707;DHT22;6925;47.816;13.072;2024-01-30T01:01:34;5.00;54.00
13707;DHT22;6925;47.816;13.072;2024-01-30T01:04:01;5.00;54.30
13707;DHT22;6925;47.816;13.072;2024-01-30T01:06:28;5.00;54.30
13707;DHT22;6925;47.816;13.072;2024-01-30T01:08:55;5.00;54.30
13707;DHT22;6925;47.816;13.072;2024-01-30T01:11:22;5.00;53.70
13707;DHT22;6925;47.816;13.072;2024-01-30T01:13:49;4.90;54.30
13707;DHT22;6925;47.816;13.072;2024-01-30T01:16:16;4.90;54.20
13707;DHT22;6925;47.816;13.072;2024-01-30T01:18:45;4.90;54.40
13707;DHT22;6925;47.816;13.072;2024-01-30T01:21:12;4.80;54.40
13707;DHT22;6925;47.816;13.072;2024-01-30T01:23:39;4.80;54.70
13707;DHT22;6925;47.816;13.072;2024-01-30T01:26:07;4.80;55.00
13707;DHT22;6925;47.816;13.072;2024-01-30T01:28:35;4.90;55.00
13707;DHT22;6925;47.816;13.072;2024-01-30T01:31:03;4.80;55.00
13707;DHT22;6925;47.816;13.072;2024-01-30T01:33:31;4.80;55.00
13707;DHT22;6925;47.816;13.072;2024-01-30T01:36:00;4.80;54.70
13707;DHT22;6925;47.816;13.072;2024-01-30T01:38:28;4.70;54.90
13707;DHT22;6925;47.816;13.072;2024-01-30T01:40:55;4.70;54.90
13707;DHT22;6925;47.816;13.072;2024-01-30T01:43:22;4.70;54.80
13707;DHT22;6925;47.816;13.072;2024-01-30T01:45:50;4.70;54.80
13707;DHT22;6925;47.816;13.072;2024-01-30T01:48:16;4.70;54.90
13707;DHT22;6925;47.816;13.072;2024-01-30T01:50:43;4.70;54.80
13707;DHT22;6925;47.816;13.072;2024-01-30T01:53:12;4.70;54.80
13707;DHT22;6925;47.816;13.072;2024-01-30T01:55:39;4.70;54.80
13707;DHT22;6925;47.816;13.072;2024-01-30T01:58:07;4.60;54.70
13707;DHT22;6925;47.816;13.072;2024-01-30T02:00:36;4.60;54.70
13707;DHT22;6925;47.816;13.072;2024-01-30T02:03:06;4.60;54.90
13707;DHT22;6925;47.816;13.072;2024-01-30T02:05:33;4.60;54.50
13707;DHT22;6925;47.816;13.072;2024-01-30T02:08:01;4.70;54.60
13707;DHT22;6925;47.816;13.072;2024-01-30T02:10:30;4.60;54.50
13707;DHT22;6925;47.816;13.072;2024-01-30T02:12:57;4.70;54.70
13707;DHT22;6925;47.816;13.072;2024-01-30T02:15:24;4.60;54.70
13707;DHT22;6925;47.816;13.072;2024-01-30T02:17:51;4.60;54.90
13707;DHT22;6925;47.816;13.072;2024-01-30T02:20:19;4.50;54.90
13707;DHT22;6925;47.816;13.072;2024-01-30T02:22:48;4.40;54.80
13707;DHT22;6925;47.816;13.072;2024-01-30T02:25:15;4.20;55.10
13707;DHT22;6925;47.816;13.072;2024-01-30T02:27:42;4.20;55.40
13707;DHT22;6925;47.816;13.072;2024-01-30T02:30:11;4.20;55.40
13707;DHT22;6925;47.816;13.072;2024-01-30T02:32:38;4.20;55.60
13707;DHT22;6925;47.816;13.072;2024-01-30T02:35:05;4.30;55.50
13707;DHT22;6925;47.816;13.072;2024-01-30T02:37:32;4.30;55.20
13707;DHT22;6925;47.816;13.072;2024-01-30T02:40:01;4.30;54.80
13707;DHT22;6925;47.816;13.072;2024-01-30T02:42:28;4.30;54.90
13707;DHT22;6925;47.816;13.072;2024-01-30T02:44:55;4.20;54.70
13707;DHT22;6925;47.816;13.072;2024-01-30T02:47:22;4.20;54.80
13707;DHT22;6925;47.816;13.072;2024-01-30T02:49:49;4.20;54.90
13707;DHT22;6925;47.816;13.072;2024-01-30T02:52:16;4.20;55.00
13707;DHT22;6925;47.816;13.072;2024-01-30T02:54:45;4.20;54.50
13707;DHT22;6925;47.816;13.072;2024-01-30T02:57:13;4.10;54.80
13707;DHT22;6925;47.816;13.072;2024-01-30T02:59:40;4.10;55.30
13707;DHT22;6925;47.816;13.072;2024-01-30T03:02:07;4.00;55.40
13707;DHT22;6925;47.816;13.072;2024-01-30T03:04:34;4.00;55.00
13707;DHT22;6925;47.816;13.072;2024-01-30T03:07:02;4.00;55.10
13707;DHT22;6925;47.816;13.072;2024-01-30T03:09:29;4.00;55.40
13707;DHT22;6925;47.816;13.072;2024-01-30T03:11:56;4.00;55.40
13707;DHT22;6925;47.816;13.072;2024-01-30T03:14:24;4.00;55.50
13707;DHT22;6925;47.816;13.072;2024-01-30T03:16:52;4.00;55.40
13707;DHT22;6925;47.816;13.072;2024-01-30T03:19:19;4.00;55.30
13707;DHT22;6925;47.816;13.072;2024-01-30T03:21:46;4.00;55.40
13707;DHT22;6925;47.816;13.072;2024-01-30T03:24:13;4.00;55.70
13707;DHT22;6925;47.816;13.072;2024-01-30T03:26:40;4.00;55.50
13707;DHT22;6925;47.816;13.072;2024-01-30T03:29:07;3.90;55.70
13707;DHT22;6925;47.816;13.072;2024-01-30T03:31:36;4.00;56.00
13707;DHT22;6925;47.816;13.072;2024-01-30T03:34:03;4.10;56.00
13707;DHT22;6925;47.816;13.072;2024-01-30T03:36:30;4.00;55.60
13707;DHT22;6925;47.816;13.072;2024-01-30T03:38:58;4.00;55.20
13707;DHT22;6925;47.816;13.072;2024-01-30T03:41:25;4.00;54.80
13707;DHT22;6925;47.816;13.072;2024-01-30T03:43:52;4.00;54.50
13707;DHT22;6925;47.816;13.072;2024-01-30T03:46:19;4.00;54.70
13707;DHT22;6925;47.816;13.072;2024-01-30T03:48:48;4.00;55.50
13707;DHT22;6925;47.816;13.072;2024-01-30T03:51:15;4.00;55.70
13707;DHT22;6925;47.816;13.072;2024-01-30T03:53:42;4.10;55.50
13707;DHT22;6925;47.816;13.072;2024-01-30T03:56:11;4.10;55.30
13707;DHT22;6925;47.816;13.072;2024-01-30T03:58:38;4.10;55.10
13707;DHT22;6925;47.816;13.072;2024-01-30T04:01:05;4.10;55.00
13707;DHT22;6925;47.816;13.072;2024-01-30T04:03:32;3.90;55.30
13707;DHT22;6925;47.816;13.072;2024-01-30T04:06:01;3.90;56.00
13707;DHT22;6925;47.816;13.072;2024-01-30T04:08:28;3.90;56.00
13707;DHT22;6925;47.816;13.072;2024-01-30T04:10:56;3.90;55.90
13707;DHT22;6925;47.816;13.072;2024-01-30T04:13:23;3.90;56.00
13707;DHT22;6925;47.816;13.072;2024-01-30T04:15:50;3.90;55.90
13707;DHT22;6925;47.816;13.072;2024-01-30T04:18:17;3.80;55.50
13707;DHT22;6925;47.816;13.072;2024-01-30T04:20:45;3.80;55.40
13707;DHT22;6925;47.816;13.072;2024-01-30T04:23:13;3.80;55.10
13707;DHT22;6925;47.816;13.072;2024-01-30T04:25:41;3.90;55.30
13707;DHT22;6925;47.816;13.072;2024-01-30T04:28:08;3.90;54.60
13707;DHT22;6925;47.816;13.072;2024-01-30T04:30:35;3.90;54.60
13707;DHT22;6925;47.816;13.072;2024-01-30T04:33:03;3.80;55.00
13707;DHT22;6925;47.816;13.072;2024-01-30T04:35:31;3.70;55.10
13707;DHT22;6925;47.816;13.072;2024-01-30T04:37:58;3.70;55.10
13707;DHT22;6925;47.816;13.072;2024-01-30T04:40:27;3.70;55.10
13707;DHT22;6925;47.816;13.072;2024-01-30T04:42:54;3.70;55.00
13707;DHT22;6925;47.816;13.072;2024-01-30T04:45:21;3.70;54.60
13707;DHT22;6925;47.816;13.072;2024-01-30T04:47:48;3.70;54.70
13707;DHT22;6925;47.816;13.072;2024-01-30T04:50:15;3.80;54.60
13707;DHT22;6925;47.816;13.072;2024-01-30T04:52:42;3.80;54.40
13707;DHT22;6925;47.816;13.072;2024-01-30T04:55:09;3.80;54.20
13707;DHT22;6925;47.816;13.072;2024-01-30T04:57:38;3.80;54.20
13707;DHT22;6925;47.816;13.072;2024-01-30T05:00:06;3.90;54.40
13707;DHT22;6925;47.816;13.072;2024-01-30T05:02:33;3.90;54.70
13707;DHT22;6925;47.816;13.072;2024-01-30T05:05:00;3.90;54.60
13707;DHT22;6925;47.816;13.072;2024-01-30T05:07:28;3.90;54.50
13707;DHT22;6925;47.816;13.072;2024-01-30T05:09:55;4.00;54.60
13707;DHT22;6925;47.816;13.072;2024-01-30T05:12:22;4.00;54.50
13707;DHT22;6925;47.816;13.072;2024-01-30T05:14:51;3.90;54.40
13707;DHT22;6925;47.816;13.072;2024-01-30T05:17:18;3.90;54.40
13707;DHT22;6925;47.816;13.072;2024-01-30T05:19:46;3.90;54.70
13707;DHT22;6925;47.816;13.072;2024-01-30T05:22:13;3.90;54.50
13707;DHT22;6925;47.816;13.072;2024-01-30T05:24:41;4.00;54.60
13707;DHT22;6925;47.816;13.072;2024-01-30T05:27:08;4.00;54.70
13707;DHT22;6925;47.816;13.072;2024-01-30T05:29:35;4.10;54.80
13707;DHT22;6925;47.816;13.072;2024-01-30T05:32:04;4.10;54.40
13707;DHT22;6925;47.816;13.072;2024-01-30T05:34:32;4.20;54.40
13707;DHT22;6925;47.816;13.072;2024-01-30T05:36:59;4.20;54.30
13707;DHT22;6925;47.816;13.072;2024-01-30T05:39:26;4.20;54.00
13707;DHT22;6925;47.816;13.072;2024-01-30T05:41:53;4.00;54.40
13707;DHT22;6925;47.816;13.072;2024-01-30T05:44:21;4.00;54.90
13707;DHT22;6925;47.816;13.072;2024-01-30T05:46:48;4.00;54.30
13707;DHT22;6925;47.816;13.072;2024-01-30T05:49:16;3.90;54.20
13707;DHT22;6925;47.816;13.072;2024-01-30T05:51:43;3.90;54.20
13707;DHT22;6925;47.816;13.072;2024-01-30T05:54:11;4.00;54.10
13707;DHT22;6925;47.816;13.072;2024-01-30T05:56:38;4.00;53.60
13707;DHT22;6925;47.816;13.072;2024-01-30T05:59:05;4.10;53.50
13707;DHT22;6925;47.816;13.072;2024-01-30T06:01:32;4.10;53.50
13707;DHT22;6925;47.816;13.072;2024-01-30T06:04:00;4.10;53.30
13707;DHT22;6925;47.816;13.072;2024-01-30T06:06:29;4.10;53.40
13707;DHT22;6925;47.816;13.072;2024-01-30T06:08:56;4.10;53.30
13707;DHT22;6925;47.816;13.072;2024-01-30T06:11:23;4.10;53.10
13707;DHT22;6925;47.816;13.072;2024-01-30T06:13:50;4.10;53.00
13707;DHT22;6925;47.816;13.072;2024-01-30T06:16:18;4.10;53.00
13707;DHT22;6925;47.816;13.072;2024-01-30T06:18:46;4.20;53.50
13707;DHT22;6925;47.816;13.072;2024-01-30T06:21:13;4.20;53.20
13707;DHT22;6925;47.816;13.072;2024-01-30T06:23:42;4.20;53.30
13707;DHT22;6925;47.816;13.072;2024-01-30T06:26:09;4.20;53.90
13707;DHT22;6925;47.816;13.072;2024-01-30T06:28:37;4.20;54.00
13707;DHT22;6925;47.816;13.072;2024-01-30T06:31:04;4.10;53.50
13707;DHT22;6925;47.816;13.072;2024-01-30T06:33:31;4.20;53.80
13707;DHT22;6925;47.816;13.072;2024-01-30T06:35:58;4.20;53.40
13707;DHT22;6925;47.816;13.072;2024-01-30T06:38:25;4.20;53.10
13707;DHT22;6925;47.816;13.072;2024-01-30T06:40:54;4.20;53.00
13707;DHT22;6925;47.816;13.072;2024-01-30T06:43:22;4.20;53.10
13707;DHT22;6925;47.816;13.072;2024-01-30T06:45:50;4.20;53.40
13707;DHT22;6925;47.816;13.072;2024-01-30T06:48:17;4.20;53.00
13707;DHT22;6925;47.816;13.072;2024-01-30T06:50:44;4.20;52.90
13707;DHT22;6925;47.816;13.072;2024-01-30T06:53:11;4.20;53.40
13707;DHT22;6925;47.816;13.072;2024-01-30T06:55:39;4.20;53.70
13707;DHT22;6925;47.816;13.072;2024-01-30T06:58:07;4.20;53.40
13707;DHT22;6925;47.816;13.072;2024-01-30T07:00:35;4.20;53.70
13707;DHT22;6925;47.816;13.072;2024-01-30T07:03:02;4.20;53.40
13707;DHT22;6925;47.816;13.072;2024-01-30T07:05:30;4.20;54.00
13707;DHT22;6925;47.816;13.072;2024-01-30T07:07:57;4.10;53.60
13707;DHT22;6925;47.816;13.072;2024-01-30T07:10:24;4.10;53.90
13707;DHT22;6925;47.816;13.072;2024-01-30T07:12:51;4.20;54.40
13707;DHT22;6925;47.816;13.072;2024-01-30T07:15:19;4.20;53.80
13707;DHT22;6925;47.816;13.072;2024-01-30T07:17:46;4.20;54.20
13707;DHT22;6925;47.816;13.072;2024-01-30T07:20:14;4.10;54.20
13707;DHT22;6925;47.816;13.072;2024-01-30T07:22:41;4.10;54.20
13707;DHT22;6925;47.816;13.072;2024-01-30T07:25:08;4.10;54.90
13707;DHT22;6925;47.816;13.072;2024-01-30T07:27:35;4.10;55.30
13707;DHT22;6925;47.816;13.072;2024-01-30T07:30:03;4.10;55.50
13707;DHT22;6925;47.816;13.072;2024-01-30T07:32:31;4.10;55.60
13707;DHT22;6925;47.816;13.072;2024-01-30T07:34:58;4.10;55.70
13707;DHT22;6925;47.816;13.072;2024-01-30T07:37:25;4.20;55.60
13707;DHT22;6925;47.816;13.072;2024-01-30T07:39:54;4.20;55.70
13707;DHT22;6925;47.816;13.072;2024-01-30T07:42:21;4.20;55.70
13707;DHT22;6925;47.816;13.072;2024-01-30T07:44:48;4.10;55.70
13707;DHT22;6925;47.816;13.072;2024-01-30T07:47:15;4.20;55.60
13707;DHT22;6925;47.816;13.072;2024-01-30T07:49:44;4.30;55.10
13707;DHT22;6925;47.816;13.072;2024-01-30T07:52:11;4.30;55.80
13707;DHT22;6925;47.816;13.072;2024-01-30T07:54:38;4.30;55.90
13707;DHT22;6925;47.816;13.072;2024-01-30T07:57:05;4.30;55.80
13707;DHT22;6925;47.816;13.072;2024-01-30T07:59:32;4.30;55.50
13707;DHT22;6925;47.816;13.072;2024-01-30T08:02:00;4.30;55.80
13707;DHT22;6925;47.816;13.072;2024-01-30T08:04:27;4.30;56.00
13707;DHT22;6925;47.816;13.072;2024-01-30T08:06:55;4.40;56.70
13707;DHT22;6925;47.816;13.072;2024-01-30T08:09:22;4.40;56.20
13707;DHT22;6925;47.816;13.072;2024-01-30T08:11:50;4.30;56.40
13707;DHT22;6925;47.816;13.072;2024-01-30T08:14:17;4.30;56.50
13707;DHT22;6925;47.816;13.072;2024-01-30T08:16:44;4.40;56.70
13707;DHT22;6925;47.816;13.072;2024-01-30T08:19:11;4.40;57.00
13707;DHT22;6925;47.816;13.072;2024-01-30T08:21:38;4.40;56.90
13707;DHT22;6925;47.816;13.072;2024-01-30T08:24:08;4.50;56.60
13707;DHT22;6925;47.816;13.072;2024-01-30T08:26:35;4.50;56.00
13707;DHT22;6925;47.816;13.072;2024-01-30T08:29:02;4.40;55.70
13707;DHT22;6925;47.816;13.072;2024-01-30T08:31:29;4.40;56.40
13707;DHT22;6925;47.816;13.072;2024-01-30T08:33:57;4.50;56.80
13707;DHT22;6925;47.816;13.072;2024-01-30T08:36:24;4.50;56.80
13707;DHT22;6925;47.816;13.072;2024-01-30T08:38:51;4.60;56.70
13707;DHT22;6925;47.816;13.072;2024-01-30T08:41:20;4.70;56.40
13707;DHT22;6925;47.816;13.072;2024-01-30T08:43:47;4.60;56.20
13707;DHT22;6925;47.816;13.072;2024-01-30T08:46:17;4.60;56.40
13707;DHT22;6925;47.816;13.072;2024-01-30T08:48:46;4.70;56.60
13707;DHT22;6925;47.816;13.072;2024-01-30T08:51:13;4.70;56.80
13707;DHT22;6925;47.816;13.072;2024-01-30T08:53:41;4.90;57.50
13707;DHT22;6925;47.816;13.072;2024-01-30T08:56:08;5.10;58.00
13707;DHT22;6925;47.816;13.072;2024-01-30T08:58:37;5.40;58.30
13707;DHT22;6925;47.816;13.072;2024-01-30T09:01:05;5.70;58.30
13707;DHT22;6925;47.816;13.072;2024-01-30T09:03:32;6.00;57.80
13707;DHT22;6925;47.816;13.072;2024-01-30T09:05:59;6.30;58.40
13707;DHT22;6925;47.816;13.072;2024-01-30T09:08:26;6.70;57.80
13707;DHT22;6925;47.816;13.072;2024-01-30T09:10:53;7.10;57.50
13707;DHT22;6925;47.816;13.072;2024-01-30T09:13:20;7.50;57.40
13707;DHT22;6925;47.816;13.072;2024-01-30T09:15:49;7.80;57.00
13707;DHT22;6925;47.816;13.072;2024-01-30T09:18:16;8.20;57.20
13707;DHT22;6925;47.816;13.072;2024-01-30T09:20:43;8.60;57.30
13707;DHT22;6925;47.816;13.072;2024-01-30T09:23:11;9.00;56.90
13707;DHT22;6925;47.816;13.072;2024-01-30T09:25:38;9.30;55.50
13707;DHT22;6925;47.816;13.072;2024-01-30T09:28:06;9.60;55.80
13707;DHT22;6925;47.816;13.072;2024-01-30T09:30:33;10.00;56.30
13707;DHT22;6925;47.816;13.072;2024-01-30T09:33:01;10.30;56.10
13707;DHT22;6925;47.816;13.072;2024-01-30T09:35:29;10.70;55.80
13707;DHT22;6925;47.816;13.072;2024-01-30T09:37:56;10.90;52.30
13707;DHT22;6925;47.816;13.072;2024-01-30T09:40:23;10.80;51.10
13707;DHT22;6925;47.816;13.072;2024-01-30T09:42:51;10.80;49.20
13707;DHT22;6925;47.816;13.072;2024-01-30T09:45:19;10.80;50.40
13707;DHT22;6925;47.816;13.072;2024-01-30T09:47:46;10.90;50.20
13707;DHT22;6925;47.816;13.072;2024-01-30T09:50:15;11.10;51.70
13707;DHT22;6925;47.816;13.072;2024-01-30T09:52:43;11.50;51.70
13707;DHT22;6925;47.816;13.072;2024-01-30T09:55:11;11.90;52.40
13707;DHT22;6925;47.816;13.072;2024-01-30T09:57:38;12.30;51.30
13707;DHT22;6925;47.816;13.072;2024-01-30T10:00:06;12.50;50.20
13707;DHT22;6925;47.816;13.072;2024-01-30T10:02:35;12.70;49.80
13707;DHT22;6925;47.816;13.072;2024-01-30T10:05:02;12.90;49.30
13707;DHT22;6925;47.816;13.072;2024-01-30T10:07:31;13.30;50.00
13707;DHT22;6925;47.816;13.072;2024-01-30T10:09:58;13.70;49.20
13707;DHT22;6925;47.816;13.072;2024-01-30T10:12:26;13.90;45.30
13707;DHT22;6925;47.816;13.072;2024-01-30T10:14:55;13.90;46.10
13707;DHT22;6925;47.816;13.072;2024-01-30T10:17:25;14.00;45.40
13707;DHT22;6925;47.816;13.072;2024-01-30T10:19:52;14.10;46.30
13707;DHT22;6925;47.816;13.072;2024-01-30T10:22:19;14.30;45.60
13707;DHT22;6925;47.816;13.072;2024-01-30T10:24:48;14.60;45.10
13707;DHT22;6925;47.816;13.072;2024-01-30T10:27:16;14.80;45.10
13707;DHT22;6925;47.816;13.072;2024-01-30T10:29:43;14.90;43.40
13707;DHT22;6925;47.816;13.072;2024-01-30T10:32:10;15.20;44.80
13707;DHT22;6925;47.816;13.072;2024-01-30T10:34:37;15.50;44.40
13707;DHT22;6925;47.816;13.072;2024-01-30T10:37:08;15.90;44.30
13707;DHT22;6925;47.816;13.072;2024-01-30T10:39:39;16.30;44.80
13707;DHT22;6925;47.816;13.072;2024-01-30T10:42:12;16.60;43.00
13707;DHT22;6925;47.816;13.072;2024-01-30T10:44:46;16.80;42.20
13707;DHT22;6925;47.816;13.072;2024-01-30T10:47:21;17.00;43.00
13707;DHT22;6925;47.816;13.072;2024-01-30T10:49:49;17.40;43.10
13707;DHT22;6925;47.816;13.072;2024-01-30T10:52:18;17.80;41.90
13707;DHT22;6925;47.816;13.072;2024-01-30T10:54:46;18.10;41.00
13707;DHT22;6925;47.816;13.072;2024-01-30T10:57:15;18.20;41.40
13707;DHT22;6925;47.816;13.072;2024-01-30T10:59:44;18.60;41.20
13707;DHT22;6925;47.816;13.072;2024-01-30T11:02:13;18.90;40.30
13707;DHT22;6925;47.816;13.072;2024-01-30T11:04:41;19.10;40.20
13707;DHT22;6925;47.816;13.072;2024-01-30T11:07:15;19.40;39.90
13707;DHT22;6925;47.816;13.072;2024-01-30T11:09:49;19.50;38.80
13707;DHT22;6925;47.816;13.072;2024-01-30T11:12:21;19.80;38.80
13707;DHT22;6925;47.816;13.072;2024-01-30T11:14:49;19.90;38.00
13707;DHT22;6925;47.816;13.072;2024-01-30T11:17:17;20.10;37.60
13707;DHT22;6925;47.816;13.072;2024-01-30T11:19:44;20.00;36.90
13707;DHT22;6925;47.816;13.072;2024-01-30T11:22:14;19.70;33.60
13707;DHT22;6925;47.816;13.072;2024-01-30T11:24:41;19.20;32.70
13707;DHT22;6925;47.816;13.072;2024-01-30T11:27:09;18.70;31.60
13707;DHT22;6925;47.816;13.072;2024-01-30T11:29:37;18.50;33.10
13707;DHT22;6925;47.816;13.072;2024-01-30T11:32:08;18.40;32.10
13707;DHT22;6925;47.816;13.072;2024-01-30T11:34:35;18.30;31.10
13707;DHT22;6925;47.816;13.072;2024-01-30T11:37:09;18.50;33.80
13707;DHT22;6925;47.816;13.072;2024-01-30T11:39:39;18.60;32.40
13707;DHT22;6925;47.816;13.072;2024-01-30T11:42:07;18.60;31.50
13707;DHT22;6925;47.816;13.072;2024-01-30T11:44:37;18.80;33.70
13707;DHT22;6925;47.816;13.072;2024-01-30T11:47:04;19.40;35.00
13707;DHT22;6925;47.816;13.072;2024-01-30T11:49:31;20.00;35.00
13707;DHT22;6925;47.816;13.072;2024-01-30T11:51:58;20.30;33.20
13707;DHT22;6925;47.816;13.072;2024-01-30T11:54:25;20.60;34.10
13707;DHT22;6925;47.816;13.072;2024-01-30T11:56:52;21.10;34.40
13707;DHT22;6925;47.816;13.072;2024-01-30T11:59:19;21.40;32.80
13707;DHT22;6925;47.816;13.072;2024-01-30T12:01:48;21.20;29.40
13707;DHT22;6925;47.816;13.072;2024-01-30T12:04:15;20.80;29.90
13707;DHT22;6925;47.816;13.072;2024-01-30T12:06:42;20.50;28.60
13707;DHT22;6925;47.816;13.072;2024-01-30T12:09:09;20.20;28.10
13707;DHT22;6925;47.816;13.072;2024-01-30T12:11:44;20.10;28.00
13707;DHT22;6925;47.816;13.072;2024-01-30T12:14:12;20.10;29.50
13707;DHT22;6925;47.816;13.072;2024-01-30T12:16:39;20.20;29.50
13707;DHT22;6925;47.816;13.072;2024-01-30T12:19:08;20.10;28.30
13707;DHT22;6925;47.816;13.072;2024-01-30T12:21:38;20.00;28.70
13707;DHT22;6925;47.816;13.072;2024-01-30T12:24:06;20.10;29.90
13707;DHT22;6925;47.816;13.072;2024-01-30T12:26:34;20.20;28.30
13707;DHT22;6925;47.816;13.072;2024-01-30T12:29:04;20.20;28.00
13707;DHT22;6925;47.816;13.072;2024-01-30T12:31:32;20.20;27.90
13707;DHT22;6925;47.816;13.072;2024-01-30T12:34:00;20.20;29.00
13707;DHT22;6925;47.816;13.072;2024-01-30T12:36:28;20.30;28.50
13707;DHT22;6925;47.816;13.072;2024-01-30T12:38:57;20.40;28.10
13707;DHT22;6925;47.816;13.072;2024-01-30T12:41:24;20.40;27.50
13707;DHT22;6925;47.816;13.072;2024-01-30T12:43:54;20.50;28.70
13707;DHT22;6925;47.816;13.072;2024-01-30T12:46:24;20.80;29.00
13707;DHT22;6925;47.816;13.072;2024-01-30T12:48:52;21.00;27.70
13707;DHT22;6925;47.816;13.072;2024-01-30T12:51:19;21.00;26.60
13707;DHT22;6925;47.816;13.072;2024-01-30T12:53:47;21.00;26.60
13707;DHT22;6925;47.816;13.072;2024-01-30T12:56:15;21.00;26.70
13707;DHT22;6925;47.816;13.072;2024-01-30T12:58:42;21.00;27.60
13707;DHT22;6925;47.816;13.072;2024-01-30T13:01:09;21.00;26.40
13707;DHT22;6925;47.816;13.072;2024-01-30T13:03:37;20.90;26.70
13707;DHT22;6925;47.816;13.072;2024-01-30T13:06:04;21.00;26.30
13707;DHT22;6925;47.816;13.072;2024-01-30T13:08:31;21.10;27.20
13707;DHT22;6925;47.816;13.072;2024-01-30T13:10:59;21.30;26.80
13707;DHT22;6925;47.816;13.072;2024-01-30T13:13:27;21.30;25.50
13707;DHT22;6925;47.816;13.072;2024-01-30T13:15:54;21.30;25.70
13707;DHT22;6925;47.816;13.072;2024-01-30T13:18:21;21.40;25.60
13707;DHT22;6925;47.816;13.072;2024-01-30T13:20:48;21.40;26.20
13707;DHT22;6925;47.816;13.072;2024-01-30T13:23:15;21.40;25.60
13707;DHT22;6925;47.816;13.072;2024-01-30T13:25:42;21.50;25.90
13707;DHT22;6925;47.816;13.072;2024-01-30T13:28:10;21.60;26.90
13707;DHT22;6925;47.816;13.072;2024-01-30T13:30:37;22.00;28.30
13707;DHT22;6925;47.816;13.072;2024-01-30T13:33:05;22.40;26.70
13707;DHT22;6925;47.816;13.072;2024-01-30T13:35:32;22.30;25.10
13707;DHT22;6925;47.816;13.072;2024-01-30T13:37:59;22.10;24.90
13707;DHT22;6925;47.816;13.072;2024-01-30T13:40:26;22.00;25.60
13707;DHT22;6925;47.816;13.072;2024-01-30T13:42:53;21.90;25.40
13707;DHT22;6925;47.816;13.072;2024-01-30T13:45:22;22.00;25.40
13707;DHT22;6925;47.816;13.072;2024-01-30T13:47:49;21.90;25.30
13707;DHT22;6925;47.816;13.072;2024-01-30T13:50:16;21.90;25.70
13707;DHT22;6925;47.816;13.072;2024-01-30T13:52:43;22.00;27.00
13707;DHT22;6925;47.816;13.072;2024-01-30T13:55:10;22.60;28.70
13707;DHT22;6925;47.816;13.072;2024-01-30T13:57:38;23.10;28.10
13707;DHT22;6925;47.816;13.072;2024-01-30T14:00:05;23.10;26.20
13707;DHT22;6925;47.816;13.072;2024-01-30T14:02:34;23.10;27.00
13707;DHT22;6925;47.816;13.072;2024-01-30T14:05:02;23.30;27.80
13707;DHT22;6925;47.816;13.072;2024-01-30T14:07:30;23.70;28.40
13707;DHT22;6925;47.816;13.072;2024-01-30T14:09:57;24.10;28.50
13707;DHT22;6925;47.816;13.072;2024-01-30T14:12:24;24.40;27.70
13707;DHT22;6925;47.816;13.072;2024-01-30T14:14:52;24.40;27.60
13707;DHT22;6925;47.816;13.072;2024-01-30T14:17:20;24.30;27.20
13707;DHT22;6925;47.816;13.072;2024-01-30T14:19:48;24.30;27.90
13707;DHT22;6925;47.816;13.072;2024-01-30T14:22:15;24.00;26.80
13707;DHT22;6925;47.816;13.072;2024-01-30T14:24:42;23.50;24.40
13707;DHT22;6925;47.816;13.072;2024-01-30T14:27:10;23.30;27.40
13707;DHT22;6925;47.816;13.072;2024-01-30T14:29:37;23.50;28.40
13707;DHT22;6925;47.816;13.072;2024-01-30T14:32:05;23.70;26.70
13707;DHT22;6925;47.816;13.072;2024-01-30T14:34:32;23.50;26.30
13707;DHT22;6925;47.816;13.072;2024-01-30T14:37:01;23.00;25.40
13707;DHT22;6925;47.816;13.072;2024-01-30T14:39:28;22.80;27.20
13707;DHT22;6925;47.816;13.072;2024-01-30T14:41:55;22.80;25.70
13707;DHT22;6925;47.816;13.072;2024-01-30T14:44:22;22.50;26.70
13707;DHT22;6925;47.816;13.072;2024-01-30T14:46:49;22.20;26.50
13707;DHT22;6925;47.816;13.072;2024-01-30T14:49:16;22.20;27.70
13707;DHT22;6925;47.816;13.072;2024-01-30T14:51:43;21.80;26.20
13707;DHT22;6925;47.816;13.072;2024-01-30T14:54:12;21.40;26.40
13707;DHT22;6925;47.816;13.072;2024-01-30T14:56:39;21.10;27.00
13707;DHT22;6925;47.816;13.072;2024-01-30T14:59:06;20.90;27.70
13707;DHT22;6925;47.816;13.072;2024-01-30T15:01:33;20.70;27.80
13707;DHT22;6925;47.816;13.072;2024-01-30T15:04:00;20.40;27.50
13707;DHT22;6925;47.816;13.072;2024-01-30T15:06:28;20.20;28.20
13707;DHT22;6925;47.816;13.072;2024-01-30T15:08:55;20.20;28.60
13707;DHT22;6925;47.816;13.072;2024-01-30T15:11:23;20.00;28.60
13707;DHT22;6925;47.816;13.072;2024-01-30T15:13:50;20.10;29.20
13707;DHT22;6925;47.816;13.072;2024-01-30T15:16:17;20.00;29.10
13707;DHT22;6925;47.816;13.072;2024-01-30T15:18:44;20.00;30.40
13707;DHT22;6925;47.816;13.072;2024-01-30T15:21:11;20.10;30.20
13707;DHT22;6925;47.816;13.072;2024-01-30T15:23:38;20.00;30.80
13707;DHT22;6925;47.816;13.072;2024-01-30T15:26:06;19.90;31.80
13707;DHT22;6925;47.816;13.072;2024-01-30T15:28:38;19.90;32.10
13707;DHT22;6925;47.816;13.072;2024-01-30T15:31:06;19.80;32.20
13707;DHT22;6925;47.816;13.072;2024-01-30T15:33:33;19.60;33.20
13707;DHT22;6925;47.816;13.072;2024-01-30T15:36:01;19.40;32.90
13707;DHT22;6925;47.816;13.072;2024-01-30T15:38:28;19.10;33.50
13707;DHT22;6925;47.816;13.072;2024-01-30T15:40:56;18.90;33.30